Time;durP1;ratioP1;P1;durP2;ratioP2;P2;SDS_P1;SDS_P2;PMS_P1;PMS_P2;Temp;Humidity;BMP_temperature;BMP_pressure;BME280_temperature;BME280_humidity;BME280_pressure;Samples;Min_cycle;Max_cycle;Signal;HPM_P1;HPM_P2
2023/02/27 00:02:24;;;;;;;1.07;0.70;;;;;;;-1.23;93.45;96498.59;5077932;28;20230;-73
2023/02/27 00:04:50;;;;;;;1.60;1.10;;;;;;;-1.25;93.42;96497.03;5077746;28;20203;-73
2023/02/27 00:07:17;;;;;;;1.20;1.10;;;;;;;-1.21;93.79;96501.91;5078861;28;20204;-76
2023/02/27 00:09:44;;;;;;;0.80;0.80;;;;;;;-1.29;93.38;96498.16;5078184;28;20227;-74
2023/02/27 00:12:11;;;;;;;0.70;0.70;;;;;;;-1.37;94.06;96497.00;5078715;28;20227;-75
2023/02/27 00:14:37;;;;;;;1.07;1.00;;;;;;;-1.56;92.46;96509.47;5078321;28;20271;-75
2023/02/27 00:17:04;;;;;;;1.20;0.80;;;;;;;-1.48;92.77;96505.44;5078472;28;20206;-72
2023/02/27 00:19:31;;;;;;;1.37;1.07;;;;;;;-1.40;93.05;96507.53;5078924;28;20205;-75
2023/02/27 00:21:58;;;;;;;1.10;0.90;;;;;;;-1.50;92.27;96501.28;5078305;28;20238;-73
2023/02/27 00:24:24;;;;;;;2.50;1.03;;;;;;;-1.60;93.05;96508.00;5077594;28;20212;-74
2023/02/27 00:26:51;;;;;;;5.43;1.43;;;;;;;-1.71;93.57;96511.25;5078452;28;20623;-73
2023/02/27 00:29:18;;;;;;;3.70;0.93;;;;;;;-1.65;93.06;96504.88;5078354;28;20242;-74
2023/02/27 00:31:44;;;;;;;1.10;1.00;;;;;;;-1.80;93.52;96513.59;5078522;28;20228;-74
2023/02/27 00:34:11;;;;;;;0.87;0.80;;;;;;;-1.75;93.94;96517.53;5077253;28;20203;-75
2023/02/27 00:36:39;;;;;;;1.47;1.37;;;;;;;-1.74;93.20;96508.84;5077831;28;21114;-75
2023/02/27 00:39:05;;;;;;;0.90;0.80;;;;;;;-1.78;93.63;96511.75;5078329;28;20218;-73
2023/02/27 00:41:31;;;;;;;1.73;1.00;;;;;;;-1.86;94.32;96506.22;5077703;28;20223;-75
2023/02/27 00:43:58;;;;;;;2.27;0.80;;;;;;;-1.95;93.46;96509.38;5077419;28;20686;-74
2023/02/27 00:46:24;;;;;;;1.17;0.87;;;;;;;-1.87;93.94;96516.66;5078020;28;20206;-75
2023/02/27 00:48:51;;;;;;;1.83;1.13;;;;;;;-1.99;94.07;96514.84;5078468;28;20211;-75
2023/02/27 00:51:18;;;;;;;1.83;1.20;;;;;;;-1.95;93.49;96516.31;5078351;28;20698;-75
2023/02/27 00:53:46;;;;;;;3.43;1.17;;;;;;;-1.90;94.42;96514.25;5077560;28;20282;-74
2023/02/27 00:56:13;;;;;;;1.10;0.90;;;;;;;-1.97;93.96;96516.41;5078292;28;20209;-74
2023/02/27 00:58:39;;;;;;;1.10;0.87;;;;;;;-2.10;94.88;96510.34;5078612;28;20214;-73
2023/02/27 01:01:06;;;;;;;1.00;0.80;;;;;;;-1.96;94.42;96522.38;5078712;28;20662;-75
2023/02/27 01:03:32;;;;;;;1.23;1.03;;;;;;;-1.98;95.20;96519.91;5077847;28;20207;-74
2023/02/27 01:05:59;;;;;;;0.70;0.70;;;;;;;-1.98;95.22;96519.09;5077552;28;20919;-75
2023/02/27 01:08:25;;;;;;;1.33;1.03;;;;;;;-2.05;95.46;96512.63;5078208;28;20207;-73
2023/02/27 01:10:55;;;;;;;2.10;0.90;;;;;;;-1.88;95.34;96515.81;5077946;28;20237;-75
2023/02/27 01:13:22;;;;;;;0.70;0.67;;;;;;;-1.98;95.26;96516.50;5078601;28;20230;-74
2023/02/27 01:15:49;;;;;;;1.17;0.83;;;;;;;-1.95;96.04;96519.69;5077454;28;20222;-73
2023/02/27 01:18:15;;;;;;;1.83;1.00;;;;;;;-1.97;95.82;96511.25;5077747;28;20705;-75
2023/02/27 01:20:42;;;;;;;4.47;1.53;;;;;;;-1.98;95.95;96519.91;5078452;28;20467;-75
2023/02/27 01:23:09;;;;;;;1.53;0.93;;;;;;;-1.98;96.42;96514.75;5078240;28;20204;-72
2023/02/27 01:25:35;;;;;;;6.23;1.37;;;;;;;-2.07;96.68;96504.97;5076979;28;20206;-74
2023/02/27 01:28:03;;;;;;;0.70;0.70;;;;;;;-1.95;96.11;96511.94;5078369;28;20880;-74
2023/02/27 01:30:29;;;;;;;0.77;0.77;;;;;;;-1.93;96.02;96522.22;5078504;28;20231;-73
2023/02/27 01:32:56;;;;;;;20.93;0.97;;;;;;;-2.00;96.66;96516.56;5078342;28;20222;-74
2023/02/27 01:35:22;;;;;;;1.73;1.20;;;;;;;-2.06;96.77;96522.13;5077005;28;20202;-74
2023/02/27 01:37:49;;;;;;;1.03;0.93;;;;;;;-1.93;96.64;96527.38;5077799;28;20222;-72
2023/02/27 01:40:15;;;;;;;0.77;0.77;;;;;;;-2.03;96.90;96526.28;5078119;28;20202;-75
2023/02/27 01:42:42;;;;;;;2.83;0.93;;;;;;;-1.98;96.76;96525.06;5078066;28;20225;-73
2023/02/27 01:45:26;;;;;;;1.30;1.07;;;;;;;-1.85;97.08;96525.94;5077248;28;20202;-75
2023/02/27 01:47:56;;;;;;;5.00;1.50;;;;;;;-1.93;96.83;96520.44;5078142;28;20214;-74
2023/02/27 01:50:23;;;;;;;0.63;0.63;;;;;;;-1.98;97.24;96521.66;5077296;28;20223;-73
2023/02/27 01:52:54;;;;;;;1.17;1.07;;;;;;;-2.08;97.80;96523.97;5077975;28;20222;-74
2023/02/27 01:55:22;;;;;;;1.00;0.90;;;;;;;-2.14;97.52;96521.78;5076663;28;20218;-72
2023/02/27 01:57:50;;;;;;;1.47;1.10;;;;;;;-1.97;96.75;96521.56;5081659;28;20211;-73
2023/02/27 02:00:18;;;;;;;2.33;1.13;;;;;;;-2.07;97.63;96520.47;5082339;28;20579;-73
2023/02/27 02:02:52;;;;;;;0.90;0.90;;;;;;;-1.94;97.91;96521.38;5081387;28;20229;-75
2023/02/27 02:05:21;;;;;;;0.83;0.73;;;;;;;-2.09;98.06;96516.31;5080871;28;20201;-75
2023/02/27 02:07:48;;;;;;;5.30;0.87;;;;;;;-2.17;98.09;96518.56;5081836;28;20317;-74
2023/02/27 02:10:16;;;;;;;0.90;0.90;;;;;;;-2.14;97.98;96518.34;5081077;28;20603;-73
2023/02/27 02:12:43;;;;;;;1.13;0.80;;;;;;;-2.10;98.30;96519.81;5081282;28;20455;-75
2023/02/27 02:15:10;;;;;;;2.07;1.20;;;;;;;-2.16;98.36;96521.03;5081158;28;20214;-74
2023/02/27 02:17:46;;;;;;;1.10;0.90;;;;;;;-2.10;98.72;96520.66;5082102;28;20216;-75
2023/02/27 02:20:35;;;;;;;3.63;0.97;;;;;;;-2.03;98.12;96521.94;5081358;28;20820;-74
2023/02/27 02:23:35;;;;;;;3.90;2.00;;;;;;;-2.02;98.10;96521.03;5080935;28;20732;-75
2023/02/27 02:26:38;;;;;;;1.03;0.97;;;;;;;-1.97;97.56;96521.56;5046460;28;20203;-74
2023/02/27 02:29:41;;;;;;;5.03;1.30;;;;;;;-1.99;98.27;96525.97;5080826;28;20217;-73
2023/02/27 02:32:54;;;;;;;3.33;1.40;;;;;;;-2.08;98.38;96520.56;5080798;28;20233;-74
2023/02/27 02:35:49;;;;;;;2.50;1.03;;;;;;;-2.02;98.61;96521.03;5080528;28;20201;-75
2023/02/27 02:38:59;;;;;;;0.67;0.67;;;;;;;-1.98;97.95;96519.91;5080599;28;20206;-74
2023/02/27 02:41:40;;;;;;;1.93;1.37;;;;;;;-2.16;98.73;96521.03;5080258;28;20228;-75
2023/02/27 02:44:18;;;;;;;4.00;1.20;;;;;;;-2.15;98.71;96516.69;5079993;28;20214;-75
2023/02/27 02:46:52;;;;;;;1.53;1.30;;;;;;;-2.15;99.25;96512.38;5080589;28;20210;-75
2023/02/27 02:49:30;;;;;;;2.30;1.10;;;;;;;-2.11;98.86;96519.00;5080507;28;20209;-72
2023/02/27 02:52:02;;;;;;;3.90;1.30;;;;;;;-2.18;99.26;96511.72;5079422;28;20503;-75
2023/02/27 02:54:37;;;;;;;2.00;1.40;;;;;;;-2.17;99.78;96518.56;5079028;28;20573;-75
2023/02/27 02:57:09;;;;;;;3.23;1.07;;;;;;;-2.09;99.76;96522.31;5080697;28;20210;-75
2023/02/27 02:59:39;;;;;;;0.80;0.80;;;;;;;-2.11;99.21;96513.84;5079785;28;20473;-75
2023/02/27 03:02:10;;;;;;;2.47;1.20;;;;;;;-2.01;99.12;96517.53;5079184;28;20636;-75
2023/02/27 03:04:41;;;;;;;2.60;1.40;;;;;;;-2.17;98.92;96514.22;5078342;28;20582;-74
2023/02/27 03:07:15;;;;;;;0.70;0.70;;;;;;;-2.12;99.73;96514.75;5077184;28;20605;-75
2023/02/27 03:09:49;;;;;;;1.00;1.00;;;;;;;-2.16;99.57;96512.47;5079751;28;20218;-75
2023/02/27 03:12:20;;;;;;;1.47;1.07;;;;;;;-2.14;100.00;96506.31;5079019;28;20235;-75
2023/02/27 03:14:52;;;;;;;1.10;1.00;;;;;;;-2.23;100.00;96517.19;5078772;28;20208;-74
2023/02/27 03:17:25;;;;;;;1.40;1.00;;;;;;;-2.27;100.00;96512.28;5079986;28;20553;-75
2023/02/27 03:19:56;;;;;;;0.83;0.83;;;;;;;-2.26;100.00;96512.19;5078572;28;20203;-74
2023/02/27 03:22:29;;;;;;;2.07;1.17;;;;;;;-2.19;100.00;96516.06;5078134;28;20222;-74
2023/02/27 03:25:00;;;;;;;1.40;1.30;;;;;;;-2.33;100.00;96502.34;5078449;28;20204;-74
2023/02/27 03:27:32;;;;;;;2.10;1.23;;;;;;;-2.31;100.00;96511.66;5079276;28;20204;-75
2023/02/27 03:30:04;;;;;;;1.33;1.23;;;;;;;-2.27;100.00;96520.03;5078293;28;20462;-75
2023/02/27 03:32:35;;;;;;;1.17;1.07;;;;;;;-2.15;100.00;96521.84;5078941;28;20229;-74
2023/02/27 03:35:03;;;;;;;2.13;1.17;;;;;;;-2.18;100.00;96522.06;5078129;28;20218;-74
2023/02/27 03:37:40;;;;;;;1.13;1.00;;;;;;;-2.11;100.00;96526.75;5078762;28;20550;-75
2023/02/27 03:40:26;;;;;;;2.37;1.43;;;;;;;-2.18;100.00;96517.72;5078506;28;20209;-75
2023/02/27 03:43:01;;;;;;;0.40;0.40;;;;;;;-2.26;100.00;96517.34;5079450;28;20230;-73
2023/02/27 03:45:37;;;;;;;2.23;1.77;;;;;;;-2.19;100.00;96515.22;5077470;28;20199;-74
2023/02/27 03:48:05;;;;;;;2.60;1.40;;;;;;;-2.25;100.00;96519.03;5079591;28;20292;-75
2023/02/27 03:50:32;;;;;;;1.27;1.10;;;;;;;-2.39;100.00;96513.88;5078654;28;20220;-73
2023/02/27 03:52:59;;;;;;;3.27;0.93;;;;;;;-2.31;100.00;96521.16;5078301;28;20226;-73
2023/02/27 03:55:32;;;;;;;3.37;1.80;;;;;;;-2.32;100.00;96517.75;5078990;28;20199;-74
2023/02/27 03:57:59;;;;;;;1.77;1.10;;;;;;;-2.40;100.00;96516.56;5079127;28;20317;-75
2023/02/27 04:00:27;;;;;;;1.97;1.50;;;;;;;-2.28;100.00;96516.63;5078977;28;20211;-75
2023/02/27 04:02:57;;;;;;;1.40;1.30;;;;;;;-2.31;100.00;96519.38;5079177;28;20463;-74
2023/02/27 04:05:23;;;;;;;1.60;1.50;;;;;;;-2.29;100.00;96530.47;5076863;28;20200;-74
2023/02/27 04:08:08;;;;;;;1.90;1.27;;;;;;;-2.19;100.00;96530.72;5078523;28;20206;-72
2023/02/27 04:10:50;;;;;;;1.43;1.17;;;;;;;-2.25;100.00;96536.28;5078287;28;20215;-74
2023/02/27 04:13:27;;;;;;;2.57;1.67;;;;;;;-2.17;100.00;96529.69;5078568;28;20204;-74
2023/02/27 04:16:19;;;;;;;3.00;1.63;;;;;;;-2.24;100.00;96533.59;5078624;28;20225;-74
2023/02/27 04:19:00;;;;;;;2.90;1.37;;;;;;;-2.27;100.00;96535.53;5078999;28;20206;-75
2023/02/27 04:21:32;;;;;;;1.67;1.40;;;;;;;-2.25;100.00;96541.44;5078705;28;20215;-75
2023/02/27 04:24:07;;;;;;;2.57;1.87;;;;;;;-2.22;100.00;96543.81;5077451;28;20200;-73
2023/02/27 04:26:42;;;;;;;3.07;1.50;;;;;;;-2.32;100.00;96540.97;5078004;28;20542;-74
2023/02/27 04:29:17;;;;;;;1.30;1.20;;;;;;;-2.28;100.00;96545.03;5078162;28;20213;-74
2023/02/27 04:31:49;;;;;;;1.53;1.43;;;;;;;-2.28;100.00;96542.44;5078498;28;20242;-74
2023/02/27 04:34:21;;;;;;;1.30;1.00;;;;;;;-2.19;100.00;96535.88;5077548;28;20209;-75
2023/02/27 04:36:56;;;;;;;4.67;1.97;;;;;;;-2.38;100.00;96538.75;5078048;28;20211;-74
2023/02/27 04:39:27;;;;;;;0.63;0.63;;;;;;;-2.42;100.00;96537.28;5078285;28;20231;-75
2023/02/27 04:41:59;;;;;;;2.73;1.47;;;;;;;-2.36;100.00;96531.72;5078167;28;20222;-75
2023/02/27 04:44:29;;;;;;;2.87;1.03;;;;;;;-2.45;100.00;96543.56;5078828;28;20204;-73
2023/02/27 04:46:59;;;;;;;2.33;1.77;;;;;;;-2.38;100.00;96532.75;5079853;28;20203;-74
2023/02/27 04:49:28;;;;;;;1.00;0.90;;;;;;;-2.28;100.00;96542.44;5079457;28;20220;-73
2023/02/27 04:52:00;;;;;;;1.57;1.33;;;;;;;-2.27;100.00;96540.69;5079203;28;20233;-73
2023/02/27 04:54:32;;;;;;;2.70;1.37;;;;;;;-2.24;100.00;96540.47;5078905;28;20207;-75
2023/02/27 04:57:04;;;;;;;0.83;0.67;;;;;;;-2.41;100.00;96530.38;5079037;28;20238;-74
2023/02/27 04:59:35;;;;;;;0.83;0.83;;;;;;;-2.32;100.00;96543.56;5079243;28;20848;-75
2023/02/27 05:02:06;;;;;;;0.87;0.87;;;;;;;-2.31;100.00;96542.59;5080069;28;20231;-74
2023/02/27 05:04:36;;;;;;;12.70;1.90;;;;;;;-2.27;100.00;96538.09;5079040;28;20286;-74
2023/02/27 05:07:08;;;;;;;4.43;1.83;;;;;;;-2.27;100.00;96543.25;5079259;28;20484;-73
2023/02/27 05:09:41;;;;;;;1.07;0.97;;;;;;;-2.29;100.00;96539.94;5078563;28;20211;-75
2023/02/27 05:12:16;;;;;;;4.53;1.53;;;;;;;-2.31;100.00;96537.44;5078462;28;20237;-73
2023/02/27 05:14:49;;;;;;;1.20;1.10;;;;;;;-2.32;100.00;96547.88;5078506;28;20345;-73
2023/02/27 05:17:22;;;;;;;1.87;1.33;;;;;;;-2.45;100.00;96528.91;5078922;28;20209;-76
2023/02/27 05:19:49;;;;;;;1.43;1.33;;;;;;;-2.36;100.00;96543.81;5079457;28;20201;-75
2023/02/27 05:22:25;;;;;;;1.93;1.50;;;;;;;-2.34;100.00;96547.97;5078168;28;20223;-73
2023/02/27 05:25:00;;;;;;;2.27;1.80;;;;;;;-2.27;100.00;96545.84;5078349;28;20212;-76
2023/02/27 05:27:37;;;;;;;4.87;1.70;;;;;;;-2.35;100.00;96550.66;5078699;28;20207;-75
2023/02/27 05:30:09;;;;;;;1.77;1.20;;;;;;;-2.37;100.00;96542.16;5078231;28;20199;-75
2023/02/27 05:32:42;;;;;;;1.20;1.10;;;;;;;-2.30;100.00;96543.47;5082528;28;20266;-76
2023/02/27 05:35:17;;;;;;;3.43;1.60;;;;;;;-2.32;100.00;96538.41;5081812;28;20690;-74
2023/02/27 05:37:48;;;;;;;1.30;1.13;;;;;;;-2.37;100.00;96544.72;5083108;28;20205;-76
2023/02/27 05:40:19;;;;;;;1.43;1.20;;;;;;;-2.41;100.00;96536.38;5082476;28;20202;-76
2023/02/27 05:42:52;;;;;;;1.90;0.83;;;;;;;-2.30;100.00;96552.00;5081554;28;20474;-76
2023/02/27 05:45:22;;;;;;;1.60;1.50;;;;;;;-2.25;100.00;96557.72;5081467;28;20214;-75
2023/02/27 05:47:55;;;;;;;2.37;1.43;;;;;;;-2.31;100.00;96552.94;5081700;28;20655;-76
2023/02/27 05:50:25;;;;;;;3.43;1.50;;;;;;;-2.36;100.00;96554.13;5080949;28;20206;-74
2023/02/27 05:52:54;;;;;;;7.37;2.20;;;;;;;-2.42;100.00;96558.84;5081221;28;20229;-75
2023/02/27 05:55:26;;;;;;;2.43;2.03;;;;;;;-2.44;100.00;96558.94;5081138;28;20206;-74
2023/02/27 05:58:01;;;;;;;3.07;1.67;;;;;;;-2.40;100.00;96553.50;5081795;28;20210;-76
2023/02/27 06:00:35;;;;;;;1.90;1.40;;;;;;;-2.37;100.00;96557.63;5081641;28;20472;-75
2023/02/27 06:03:01;;;;;;;1.63;1.50;;;;;;;-2.49;100.00;96554.97;5081427;28;20295;-75
2023/02/27 06:05:29;;;;;;;3.63;1.73;;;;;;;-2.45;100.00;96551.28;5080901;28;20209;-73
2023/02/27 06:07:55;;;;;;;1.43;1.30;;;;;;;-2.53;100.00;96559.47;5082032;28;20204;-75
2023/02/27 06:10:22;;;;;;;2.10;1.50;;;;;;;-2.56;100.00;96556.25;5080732;28;20594;-72
2023/02/27 06:12:49;;;;;;;3.47;2.07;;;;;;;-2.48;100.00;96559.19;5080954;28;20227;-74
2023/02/27 06:15:18;;;;;;;3.13;2.00;;;;;;;-2.19;100.00;96557.38;5080807;28;20205;-74
2023/02/27 06:17:44;;;;;;;0.80;0.80;;;;;;;-2.31;100.00;96568.41;5081721;28;20213;-71
2023/02/27 06:20:12;;;;;;;3.27;1.67;;;;;;;-2.33;100.00;96562.53;5080510;28;20218;-74
2023/02/27 06:22:39;;;;;;;1.77;1.57;;;;;;;-2.38;100.00;96559.41;5080177;28;20270;-73
2023/02/27 06:25:06;;;;;;;7.20;1.93;;;;;;;-2.46;100.00;96565.09;5080641;28;20205;-75
2023/02/27 06:27:32;;;;;;;1.97;1.60;;;;;;;-2.42;100.00;96564.00;5080302;28;20203;-75
2023/02/27 06:29:59;;;;;;;1.33;0.97;;;;;;;-2.45;100.00;96565.00;5081225;28;20218;-75
2023/02/27 06:32:27;;;;;;;3.30;1.63;;;;;;;-2.31;100.00;96562.44;5080047;28;20229;-75
2023/02/27 06:34:54;;;;;;;12.87;2.50;;;;;;;-2.51;100.00;96574.88;5079560;28;20206;-73
2023/02/27 06:37:21;;;;;;;2.97;1.50;;;;;;;-2.52;100.00;96573.19;5080584;28;20202;-74
2023/02/27 06:39:47;;;;;;;4.47;2.83;;;;;;;-2.42;100.00;96580.28;5080321;28;20207;-74
2023/02/27 06:42:14;;;;;;;1.40;1.30;;;;;;;-2.25;100.00;96580.97;5079412;28;20230;-74
2023/02/27 06:44:41;;;;;;;2.83;1.30;;;;;;;-2.49;100.00;96583.34;5079121;28;20203;-73
2023/02/27 06:47:07;;;;;;;2.20;1.47;;;;;;;-2.60;100.00;96585.72;5080043;28;20203;-75
2023/02/27 06:49:35;;;;;;;3.03;1.60;;;;;;;-2.28;100.00;96588.91;5079921;28;20882;-73
2023/02/27 06:52:01;;;;;;;1.53;1.23;;;;;;;-2.37;100.00;96583.44;5080371;28;20224;-74
2023/02/27 06:54:28;;;;;;;4.03;2.17;;;;;;;-2.33;100.00;96588.34;5078959;28;20218;-74
2023/02/27 06:56:55;;;;;;;3.40;2.03;;;;;;;-2.32;100.00;96579.69;5079824;28;20645;-74
2023/02/27 06:59:21;;;;;;;5.63;2.37;;;;;;;-2.28;100.00;96586.31;5079800;28;20288;-75
2023/02/27 07:01:48;;;;;;;2.23;1.40;;;;;;;-2.34;100.00;96596.19;5079997;28;20702;-73
2023/02/27 07:04:15;;;;;;;2.87;1.70;;;;;;;-2.23;100.00;96589.44;5078859;28;20212;-75
2023/02/27 07:06:43;;;;;;;6.03;2.33;;;;;;;-2.23;100.00;96592.03;5079865;28;20204;-72
2023/02/27 07:09:10;;;;;;;3.50;1.10;;;;;;;-2.16;100.00;96590.72;5079751;28;20219;-73
2023/02/27 07:11:36;;;;;;;4.10;2.17;;;;;;;-2.18;100.00;96595.13;5079540;28;20226;-73
2023/02/27 07:14:03;;;;;;;1.23;0.90;;;;;;;-2.22;99.93;96590.28;5079084;28;20213;-72
2023/02/27 07:16:29;;;;;;;3.53;1.40;;;;;;;-2.30;100.00;96590.72;5079366;28;20203;-74
2023/02/27 07:18:56;;;;;;;2.73;2.00;;;;;;;-2.33;100.00;96598.66;5078933;28;20666;-73
2023/02/27 07:21:22;;;;;;;3.37;1.67;;;;;;;-2.19;99.68;96596.09;5079074;28;20227;-72
2023/02/27 07:23:50;;;;;;;1.17;0.90;;;;;;;-1.99;98.97;96597.44;5079254;28;20203;-75
2023/02/27 07:26:17;;;;;;;5.47;1.83;;;;;;;-2.20;99.91;96599.56;5078686;28;20222;-73
2023/02/27 07:28:44;;;;;;;1.20;1.10;;;;;;;-1.95;98.93;96601.50;5079231;28;20253;-75
2023/02/27 07:31:11;;;;;;;2.03;1.40;;;;;;;-1.97;98.35;96613.66;5079183;28;20233;-72
2023/02/27 07:33:37;;;;;;;3.57;1.67;;;;;;;-1.90;99.13;96617.53;5077871;28;20236;-75
2023/02/27 07:36:04;;;;;;;5.03;1.90;;;;;;;-1.78;98.27;96612.47;5078150;28;20202;-75
2023/02/27 07:38:31;;;;;;;1.97;1.60;;;;;;;-1.90;98.54;96615.78;5078547;28;20201;-72
2023/02/27 07:40:59;;;;;;;1.60;1.40;;;;;;;-1.67;98.34;96613.47;5079201;28;20234;-75
2023/02/27 07:43:25;;;;;;;1.53;1.43;;;;;;;-1.66;98.29;96614.28;5078449;28;20694;-74
2023/02/27 07:45:52;;;;;;;3.63;1.93;;;;;;;-1.61;96.80;96630.34;5078159;28;21078;-74
2023/02/27 07:48:19;;;;;;;5.33;1.80;;;;;;;-1.59;96.18;96626.72;5079325;28;20198;-75
2023/02/27 07:50:45;;;;;;;3.00;1.47;;;;;;;-1.60;96.85;96632.00;5078562;28;20234;-75
2023/02/27 07:53:12;;;;;;;4.83;1.63;;;;;;;-1.48;96.67;96628.66;5077593;28;20237;-73
2023/02/27 07:55:39;;;;;;;1.77;1.63;;;;;;;-1.43;96.92;96626.59;5078074;28;20203;-73
2023/02/27 07:58:07;;;;;;;5.00;2.30;;;;;;;-1.37;96.75;96639.16;5079105;28;20210;-74
2023/02/27 08:00:33;;;;;;;4.93;2.50;;;;;;;-1.31;97.28;96631.00;5078251;28;20236;-72
2023/02/27 08:03:00;;;;;;;3.07;1.70;;;;;;;-1.43;95.59;96639.53;5078398;28;20223;-72
2023/02/27 08:05:26;;;;;;;2.93;1.50;;;;;;;-1.47;96.51;96630.31;5077951;28;20267;-75
2023/02/27 08:07:53;;;;;;;3.03;1.23;;;;;;;-1.35;95.76;96627.78;5078303;28;20205;-74
2023/02/27 08:10:20;;;;;;;1.80;1.23;;;;;;;-1.22;95.76;96633.84;5077890;28;20219;-74
2023/02/27 08:12:46;;;;;;;3.57;1.20;;;;;;;-1.22;96.20;96628.69;5077879;28;20275;-72
2023/02/27 08:15:15;;;;;;;3.63;1.97;;;;;;;-1.08;95.12;96632.03;5077263;28;20610;-72
2023/02/27 08:17:42;;;;;;;4.37;1.97;;;;;;;-1.02;93.93;96636.81;5077582;28;20206;-74
2023/02/27 08:20:11;;;;;;;3.73;1.57;;;;;;;-1.00;93.93;96634.13;5078482;28;20207;-75
2023/02/27 08:22:38;;;;;;;8.60;1.97;;;;;;;-0.88;93.87;96641.94;5077475;28;20255;-72
2023/02/27 08:25:06;;;;;;;2.50;1.70;;;;;;;-0.96;93.22;96638.19;5077091;28;20209;-75
2023/02/27 08:27:33;;;;;;;2.53;1.60;;;;;;;-0.91;92.39;96638.72;5077179;28;20249;-72
2023/02/27 08:30:00;;;;;;;4.10;1.90;;;;;;;-0.81;92.63;96637.19;5077412;28;20216;-73
2023/02/27 08:32:27;;;;;;;1.30;1.13;;;;;;;-0.60;92.42;96636.59;5077172;28;20227;-74
2023/02/27 08:34:54;;;;;;;2.57;1.87;;;;;;;-0.66;91.65;96639.63;5077336;28;20211;-73
2023/02/27 08:37:20;;;;;;;2.17;1.63;;;;;;;-0.64;90.57;96647.28;5077597;28;20697;-75
2023/02/27 08:39:47;;;;;;;0.80;0.80;;;;;;;-0.77;90.51;96639.47;5078043;28;20230;-74
2023/02/27 08:42:14;;;;;;;2.80;2.00;;;;;;;-0.67;90.36;96643.13;5077345;28;20237;-74
2023/02/27 08:44:40;;;;;;;2.53;1.40;;;;;;;-0.59;90.17;96646.03;5076025;28;20234;-75
2023/02/27 08:47:07;;;;;;;2.40;1.70;;;;;;;-0.52;90.12;96639.53;5078137;28;20776;-72
2023/02/27 08:49:35;;;;;;;5.53;2.40;;;;;;;-0.38;88.37;96652.38;5078653;28;20212;-74
2023/02/27 08:52:02;;;;;;;0.80;0.80;;;;;;;-0.36;88.09;96642.75;5078742;28;20234;-75
2023/02/27 08:54:29;;;;;;;7.40;2.17;;;;;;;-0.49;88.49;96647.09;5078317;28;20238;-75
2023/02/27 08:56:56;;;;;;;2.70;1.37;;;;;;;-0.43;88.03;96639.75;5079444;28;20315;-72
2023/02/27 08:59:22;;;;;;;2.33;1.37;;;;;;;-0.28;88.29;96632.72;5077856;28;20199;-74
2023/02/27 09:01:49;;;;;;;3.43;2.37;;;;;;;-0.29;85.62;96638.84;5077642;28;20220;-73
2023/02/27 09:04:16;;;;;;;2.93;1.57;;;;;;;-0.26;87.07;96647.22;5076758;28;20220;-72
2023/02/27 09:06:43;;;;;;;1.40;1.20;;;;;;;0.11;87.13;96644.63;5078526;28;20280;-74
2023/02/27 09:09:10;;;;;;;2.97;1.47;;;;;;;-0.07;85.45;96641.66;5078443;28;20211;-76
2023/02/27 09:11:36;;;;;;;4.07;2.10;;;;;;;-0.06;86.50;96643.28;5078111;28;20227;-75
2023/02/27 09:14:03;;;;;;;9.33;1.37;;;;;;;0.00;84.44;96649.72;5077842;28;20695;-74
2023/02/27 09:16:30;;;;;;;3.17;2.07;;;;;;;0.24;84.91;96649.81;5079089;28;20726;-74
2023/02/27 09:18:56;;;;;;;3.23;1.87;;;;;;;0.28;85.52;96646.06;5078499;28;20210;-76
2023/02/27 09:21:24;;;;;;;2.47;1.40;;;;;;;0.31;85.00;96654.47;5078576;28;20215;-76
2023/02/27 09:23:52;;;;;;;6.60;3.20;;;;;;;0.41;83.30;96641.69;5077537;28;20686;-74
2023/02/27 09:26:19;;;;;;;1.20;1.10;;;;;;;0.46;82.80;96645.66;5077823;28;20223;-75
2023/02/27 09:28:45;;;;;;;2.60;1.67;;;;;;;0.67;85.46;96657.09;5077643;28;20207;-73
2023/02/27 09:31:12;;;;;;;1.97;1.40;;;;;;;0.67;84.17;96652.72;5078968;28;20220;-73
2023/02/27 09:33:39;;;;;;;4.50;2.33;;;;;;;0.70;84.34;96659.47;5077857;28;20346;-76
2023/02/27 09:36:06;;;;;;;3.53;1.80;;;;;;;0.69;83.55;96657.84;5078567;28;20208;-76
2023/02/27 09:38:33;;;;;;;2.20;1.30;;;;;;;0.91;84.43;96655.38;5078278;28;20199;-76
2023/02/27 09:41:02;;;;;;;2.57;1.13;;;;;;;0.60;82.44;96661.88;5078250;28;20276;-76
2023/02/27 09:43:36;;;;;;;1.20;1.10;;;;;;;0.41;82.42;96662.44;5077683;28;20215;-77
2023/02/27 09:46:04;;;;;;;1.17;0.97;;;;;;;0.33;81.76;96670.75;5078480;28;20208;-75
2023/02/27 09:48:34;;;;;;;1.67;0.90;;;;;;;0.59;80.74;96669.78;5079689;28;20204;-75
2023/02/27 09:51:02;;;;;;;1.90;0.93;;;;;;;0.65;81.36;96666.78;5077845;28;20223;-73
2023/02/27 09:53:32;;;;;;;2.57;1.93;;;;;;;0.65;83.15;96667.59;5077303;28;21125;-74
2023/02/27 09:56:06;;;;;;;2.30;1.43;;;;;;;0.71;84.44;96671.50;5078352;28;20635;-72
2023/02/27 09:58:43;;;;;;;3.90;1.50;;;;;;;0.75;82.79;96676.38;5078358;28;20207;-75
2023/02/27 10:01:15;;;;;;;5.57;2.80;;;;;;;0.69;82.14;96682.00;5078883;28;20261;-74
2023/02/27 10:04:02;;;;;;;2.70;1.80;;;;;;;0.80;80.79;96686.41;5079785;28;20206;-76
2023/02/27 10:06:36;;;;;;;9.03;1.63;;;;;;;0.82;81.66;96685.38;5077725;28;20566;-75
2023/02/27 10:09:20;;;;;;;3.57;2.00;;;;;;;0.98;82.53;96687.72;5078901;28;20288;-74
2023/02/27 10:12:00;;;;;;;10.47;2.87;;;;;;;0.70;81.52;96683.66;5079983;28;20585;-73
2023/02/27 10:14:39;;;;;;;2.87;1.70;;;;;;;0.77;81.38;96695.25;5078281;28;20222;-76
2023/02/27 10:17:12;;;;;;;3.67;1.37;;;;;;;0.73;82.53;96682.63;5080972;28;20311;-74
2023/02/27 10:19:39;;;;;;;1.27;1.00;;;;;;;0.78;81.47;96688.31;5082029;28;20200;-76
2023/02/27 10:22:13;;;;;;;1.73;1.30;;;;;;;0.89;82.13;96689.22;5083133;28;20231;-73
2023/02/27 10:24:44;;;;;;;3.37;1.53;;;;;;;0.98;81.83;96698.09;5085160;28;20197;-74
2023/02/27 10:27:17;;;;;;;4.00;1.47;;;;;;;1.06;80.10;96685.41;5082536;28;20210;-75
2023/02/27 10:29:44;;;;;;;6.47;2.40;;;;;;;1.22;80.10;96698.03;5086230;28;20566;-73
2023/02/27 10:32:17;;;;;;;2.10;1.50;;;;;;;1.44;79.94;96698.13;5084057;28;20230;-74
2023/02/27 10:34:48;;;;;;;2.20;1.43;;;;;;;1.23;78.28;96689.31;5082232;28;20231;-74
2023/02/27 10:37:18;;;;;;;5.23;1.90;;;;;;;1.51;74.70;96693.31;5087184;28;20203;-76
2023/02/27 10:39:48;;;;;;;1.97;1.37;;;;;;;2.02;77.19;96695.50;5089372;28;20203;-76
2023/02/27 10:42:17;;;;;;;3.67;1.90;;;;;;;2.27;75.01;96696.16;5091317;28;20234;-74
2023/02/27 10:44:44;;;;;;;1.50;1.40;;;;;;;2.40;74.04;96692.47;5089485;28;20197;-73
2023/02/27 10:47:14;;;;;;;2.63;1.60;;;;;;;2.46;69.35;96686.81;5087844;28;20244;-75
2023/02/27 10:49:42;;;;;;;2.87;1.43;;;;;;;2.15;70.98;96698.84;5088255;28;20207;-73
2023/02/27 10:52:12;;;;;;;1.33;1.10;;;;;;;2.07;73.13;96704.59;5088340;28;20227;-73
2023/02/27 10:54:40;;;;;;;3.17;1.80;;;;;;;1.90;73.35;96702.44;5087133;28;20699;-74
2023/02/27 10:57:26;;;;;;;3.30;1.63;;;;;;;2.05;73.22;96706.50;5089349;28;20207;-74
2023/02/27 10:59:54;;;;;;;2.43;1.83;;;;;;;1.83;72.74;96718.59;5087248;28;20215;-80
2023/02/27 11:02:24;;;;;;;3.00;1.73;;;;;;;1.34;72.10;96707.50;5085855;28;20779;-77
2023/02/27 11:04:53;;;;;;;7.47;1.97;;;;;;;1.18;71.89;96723.47;5087376;28;20199;-75
2023/02/27 11:07:28;;;;;;;2.63;2.17;;;;;;;1.23;72.20;96719.59;5085617;28;20253;-74
2023/02/27 11:10:00;;;;;;;2.73;1.83;;;;;;;1.31;72.48;96712.94;5080146;28;20222;-75
2023/02/27 11:12:30;;;;;;;2.87;1.53;;;;;;;1.36;73.44;96710.00;5079781;28;20220;-75
2023/02/27 11:14:58;;;;;;;3.93;1.87;;;;;;;1.53;73.10;96713.03;5078221;28;20234;-74
2023/02/27 11:17:28;;;;;;;2.30;1.00;;;;;;;1.56;72.49;96707.63;5079206;28;20197;-75
2023/02/27 11:19:55;;;;;;;3.07;1.73;;;;;;;1.36;74.99;96710.00;5079778;28;20223;-73
2023/02/27 11:22:24;;;;;;;2.30;1.33;;;;;;;1.39;75.56;96715.81;5079085;28;20310;-75
2023/02/27 11:24:52;;;;;;;4.10;1.60;;;;;;;1.23;73.45;96709.22;5078218;28;20200;-73
2023/02/27 11:27:25;;;;;;;1.37;1.20;;;;;;;1.31;73.81;96702.56;5078730;28;20204;-73
2023/02/27 11:30:01;;;;;;;5.63;2.37;;;;;;;1.47;73.59;96704.88;5079038;28;20200;-74
2023/02/27 11:32:36;;;;;;;1.53;1.00;;;;;;;1.63;74.40;96701.06;5078630;28;20219;-76
2023/02/27 11:35:04;;;;;;;8.97;1.80;;;;;;;1.82;74.32;96709.16;5078193;28;20231;-75
2023/02/27 11:37:35;;;;;;;2.40;1.60;;;;;;;1.81;71.69;96686.72;5078612;28;20201;-74
2023/02/27 11:40:12;;;;;;;4.00;2.17;;;;;;;1.95;71.67;96687.34;5079368;28;20225;-75
2023/02/27 11:42:44;;;;;;;3.97;1.77;;;;;;;2.05;71.04;96690.06;5079376;28;21455;-75
2023/02/27 11:45:28;;;;;;;4.80;2.10;;;;;;;1.80;71.07;96685.88;5078446;28;20206;-76
2023/02/27 11:47:58;;;;;;;2.73;1.40;;;;;;;2.03;70.25;96676.38;5079377;28;20203;-76